LTAF/ADA METAR and TAF weather

Enter ICAO airport designator
Station Type Date Time Source
LTAF METAR 2020/07/09 22:50 UTC NOAA

LTAF 092250Z 16002KT 9999 FEW035 25/23 Q1006 NOSIG


Station Type Date Time Source
LTAF Decoded METAR 2020/07/09 22:50 UTC NOAA

Adana / Sakirpasa, Turkey (LTAF) 36-59N 035-18E 20M
Jul 09, 2020 - 06:50 PM EDT / 2020.07.09 2250 UTC
Wind: from the SSE (160 degrees) at 2 MPH (2 KT):0
Visibility: greater than 7 mile(s):0
Sky conditions: mostly clear
Temperature: 77 F (25 C)
Dew Point: 73 F (23 C)
Relative Humidity: 88%
Pressure (altimeter): 29.71 in. Hg (1006 hPa)
ob: LTAF 092250Z 16002KT 9999 FEW035 25/23 Q1006 NOSIG
cycle: 23

Station Type Date Time Source
LTAF TAF 2020/07/09 18:00 UTC NOAA

TAF LTAF 091640Z 0918/1018 VRB02KT CAVOK
BECMG 0922/0924 SCT035
BECMG 1010/1012 21012KT
BECMG 1016/1018 VRB02KT

Example: see airport list